sensor_id;sensor_type;location;lat;lon;timestamp;temperature;humidity
79049;DHT22;68680;50.764;6.120;2023-08-24T00:00:08;18.20;99.90
79049;DHT22;68680;50.764;6.120;2023-08-24T00:02:33;18.20;99.90
79049;DHT22;68680;50.764;6.120;2023-08-24T00:04:59;18.20;99.90
79049;DHT22;68680;50.764;6.120;2023-08-24T00:07:26;18.30;99.90
79049;DHT22;68680;50.764;6.120;2023-08-24T00:09:52;18.30;99.90
79049;DHT22;68680;50.764;6.120;2023-08-24T00:12:18;18.30;99.90
79049;DHT22;68680;50.764;6.120;2023-08-24T00:14:44;18.30;99.90
79049;DHT22;68680;50.764;6.120;2023-08-24T00:17:09;18.40;99.90
79049;DHT22;68680;50.764;6.120;2023-08-24T00:19:35;18.40;99.90
79049;DHT22;68680;50.764;6.120;2023-08-24T00:22:01;18.40;99.90
79049;DHT22;68680;50.764;6.120;2023-08-24T00:24:28;18.40;99.90
79049;DHT22;68680;50.764;6.120;2023-08-24T00:26:53;18.40;99.90
79049;DHT22;68680;50.764;6.120;2023-08-24T00:29:19;18.40;99.90
79049;DHT22;68680;50.764;6.120;2023-08-24T00:31:44;18.40;99.90
79049;DHT22;68680;50.764;6.120;2023-08-24T00:34:10;18.30;99.90
79049;DHT22;68680;50.764;6.120;2023-08-24T00:36:36;18.30;99.90
79049;DHT22;68680;50.764;6.120;2023-08-24T00:39:01;18.30;99.90
79049;DHT22;68680;50.764;6.120;2023-08-24T00:41:28;18.30;99.90
79049;DHT22;68680;50.764;6.120;2023-08-24T00:43:54;18.20;99.90
79049;DHT22;68680;50.764;6.120;2023-08-24T00:46:19;18.00;99.90
79049;DHT22;68680;50.764;6.120;2023-08-24T00:48:45;17.90;99.90
79049;DHT22;68680;50.764;6.120;2023-08-24T00:51:11;17.90;99.90
79049;DHT22;68680;50.764;6.120;2023-08-24T00:53:37;17.90;99.90
79049;DHT22;68680;50.764;6.120;2023-08-24T00:56:03;17.80;99.90
79049;DHT22;68680;50.764;6.120;2023-08-24T00:58:32;17.80;99.90
79049;DHT22;68680;50.764;6.120;2023-08-24T01:00:58;17.80;99.90
79049;DHT22;68680;50.764;6.120;2023-08-24T01:03:24;17.80;99.90
79049;DHT22;68680;50.764;6.120;2023-08-24T01:05:50;17.80;99.90
79049;DHT22;68680;50.764;6.120;2023-08-24T01:08:16;17.80;99.90
79049;DHT22;68680;50.764;6.120;2023-08-24T01:10:47;17.90;99.90
79049;DHT22;68680;50.764;6.120;2023-08-24T01:13:18;17.90;99.90
79049;DHT22;68680;50.764;6.120;2023-08-24T01:15:51;18.00;99.90
79049;DHT22;68680;50.764;6.120;2023-08-24T01:18:23;18.00;99.90
79049;DHT22;68680;50.764;6.120;2023-08-24T01:20:49;18.10;99.90
79049;DHT22;68680;50.764;6.120;2023-08-24T01:23:27;18.10;99.90
79049;DHT22;68680;50.764;6.120;2023-08-24T01:26:04;18.10;99.90
79049;DHT22;68680;50.764;6.120;2023-08-24T01:28:30;18.00;99.90
79049;DHT22;68680;50.764;6.120;2023-08-24T01:30:56;17.90;99.90
79049;DHT22;68680;50.764;6.120;2023-08-24T01:33:22;17.90;99.90
79049;DHT22;68680;50.764;6.120;2023-08-24T01:35:48;17.90;99.90
79049;DHT22;68680;50.764;6.120;2023-08-24T01:38:14;17.90;99.90
79049;DHT22;68680;50.764;6.120;2023-08-24T01:40:48;18.00;99.90
79049;DHT22;68680;50.764;6.120;2023-08-24T01:43:18;18.00;99.90
79049;DHT22;68680;50.764;6.120;2023-08-24T01:45:44;18.10;99.90
79049;DHT22;68680;50.764;6.120;2023-08-24T01:48:11;18.10;99.90
79049;DHT22;68680;50.764;6.120;2023-08-24T01:50:38;18.10;99.90
79049;DHT22;68680;50.764;6.120;2023-08-24T01:53:04;18.10;99.90
79049;DHT22;68680;50.764;6.120;2023-08-24T01:55:30;18.00;99.90
79049;DHT22;68680;50.764;6.120;2023-08-24T01:57:56;18.00;99.90
79049;DHT22;68680;50.764;6.120;2023-08-24T02:00:23;18.00;99.90
79049;DHT22;68680;50.764;6.120;2023-08-24T02:02:49;17.90;99.90
79049;DHT22;68680;50.764;6.120;2023-08-24T02:05:14;17.80;99.90
79049;DHT22;68680;50.764;6.120;2023-08-24T02:07:40;17.80;99.90
79049;DHT22;68680;50.764;6.120;2023-08-24T02:10:06;17.80;99.90
79049;DHT22;68680;50.764;6.120;2023-08-24T02:12:32;17.80;99.90
79049;DHT22;68680;50.764;6.120;2023-08-24T02:14:58;17.90;99.90
79049;DHT22;68680;50.764;6.120;2023-08-24T02:17:26;17.90;99.90
79049;DHT22;68680;50.764;6.120;2023-08-24T02:19:51;18.00;99.90
79049;DHT22;68680;50.764;6.120;2023-08-24T02:22:17;18.10;99.90
79049;DHT22;68680;50.764;6.120;2023-08-24T02:24:43;18.10;99.90
79049;DHT22;68680;50.764;6.120;2023-08-24T02:27:08;18.20;99.90
79049;DHT22;68680;50.764;6.120;2023-08-24T02:29:34;18.20;99.90
79049;DHT22;68680;50.764;6.120;2023-08-24T02:32:00;18.20;99.90
79049;DHT22;68680;50.764;6.120;2023-08-24T02:34:26;18.20;99.90
79049;DHT22;68680;50.764;6.120;2023-08-24T02:36:52;18.20;99.90
79049;DHT22;68680;50.764;6.120;2023-08-24T02:39:18;18.30;99.90
79049;DHT22;68680;50.764;6.120;2023-08-24T02:41:43;18.30;99.90
79049;DHT22;68680;50.764;6.120;2023-08-24T02:44:09;18.20;99.90
79049;DHT22;68680;50.764;6.120;2023-08-24T02:46:35;18.10;99.90
79049;DHT22;68680;50.764;6.120;2023-08-24T02:49:01;18.00;99.90
79049;DHT22;68680;50.764;6.120;2023-08-24T02:51:28;17.90;99.90
79049;DHT22;68680;50.764;6.120;2023-08-24T02:53:53;17.80;99.90
79049;DHT22;68680;50.764;6.120;2023-08-24T02:56:19;17.80;99.90
79049;DHT22;68680;50.764;6.120;2023-08-24T02:58:44;17.80;99.90
79049;DHT22;68680;50.764;6.120;2023-08-24T03:01:10;17.80;99.90
79049;DHT22;68680;50.764;6.120;2023-08-24T03:03:36;17.80;99.90
79049;DHT22;68680;50.764;6.120;2023-08-24T03:06:04;17.80;99.90
79049;DHT22;68680;50.764;6.120;2023-08-24T03:08:32;17.70;99.90
79049;DHT22;68680;50.764;6.120;2023-08-24T03:10:58;17.70;99.90
79049;DHT22;68680;50.764;6.120;2023-08-24T03:13:24;17.70;99.90
79049;DHT22;68680;50.764;6.120;2023-08-24T03:15:50;17.70;99.90
79049;DHT22;68680;50.764;6.120;2023-08-24T03:18:17;17.70;99.90
79049;DHT22;68680;50.764;6.120;2023-08-24T03:20:43;17.80;99.90
79049;DHT22;68680;50.764;6.120;2023-08-24T03:23:09;17.90;99.90
79049;DHT22;68680;50.764;6.120;2023-08-24T03:25:37;17.90;99.90
79049;DHT22;68680;50.764;6.120;2023-08-24T03:28:03;18.00;99.90
79049;DHT22;68680;50.764;6.120;2023-08-24T03:30:29;18.10;99.90
79049;DHT22;68680;50.764;6.120;2023-08-24T03:32:55;18.10;99.90
79049;DHT22;68680;50.764;6.120;2023-08-24T03:35:21;18.10;99.90
79049;DHT22;68680;50.764;6.120;2023-08-24T03:37:47;18.10;99.90
79049;DHT22;68680;50.764;6.120;2023-08-24T03:40:13;18.20;99.90
79049;DHT22;68680;50.764;6.120;2023-08-24T03:42:40;18.20;99.90
79049;DHT22;68680;50.764;6.120;2023-08-24T03:45:06;18.30;99.90
79049;DHT22;68680;50.764;6.120;2023-08-24T03:47:32;18.30;99.90
79049;DHT22;68680;50.764;6.120;2023-08-24T03:49:57;18.30;99.90
79049;DHT22;68680;50.764;6.120;2023-08-24T03:52:23;18.30;99.90
79049;DHT22;68680;50.764;6.120;2023-08-24T03:54:49;18.40;99.90
79049;DHT22;68680;50.764;6.120;2023-08-24T03:57:14;18.20;99.90
79049;DHT22;68680;50.764;6.120;2023-08-24T03:59:41;18.10;99.90
79049;DHT22;68680;50.764;6.120;2023-08-24T04:02:07;18.00;99.90
79049;DHT22;68680;50.764;6.120;2023-08-24T04:04:33;18.10;99.90
79049;DHT22;68680;50.764;6.120;2023-08-24T04:06:58;18.00;99.90
79049;DHT22;68680;50.764;6.120;2023-08-24T04:09:24;17.90;99.90
79049;DHT22;68680;50.764;6.120;2023-08-24T04:11:50;17.90;99.90
79049;DHT22;68680;50.764;6.120;2023-08-24T04:14:15;17.70;99.90
79049;DHT22;68680;50.764;6.120;2023-08-24T04:16:42;17.70;99.90
79049;DHT22;68680;50.764;6.120;2023-08-24T04:19:08;17.60;99.90
79049;DHT22;68680;50.764;6.120;2023-08-24T04:21:33;17.60;99.90
79049;DHT22;68680;50.764;6.120;2023-08-24T04:23:59;17.60;99.90
79049;DHT22;68680;50.764;6.120;2023-08-24T04:26:25;17.60;99.90
79049;DHT22;68680;50.764;6.120;2023-08-24T04:28:50;17.60;99.90
79049;DHT22;68680;50.764;6.120;2023-08-24T04:31:16;17.50;99.90
79049;DHT22;68680;50.764;6.120;2023-08-24T04:33:43;17.50;99.90
79049;DHT22;68680;50.764;6.120;2023-08-24T04:36:09;17.50;99.90
79049;DHT22;68680;50.764;6.120;2023-08-24T04:38:34;17.60;99.90
79049;DHT22;68680;50.764;6.120;2023-08-24T04:41:00;17.60;99.90
79049;DHT22;68680;50.764;6.120;2023-08-24T04:43:26;17.60;99.90
79049;DHT22;68680;50.764;6.120;2023-08-24T04:45:53;17.60;99.90
79049;DHT22;68680;50.764;6.120;2023-08-24T04:48:19;17.60;99.90
79049;DHT22;68680;50.764;6.120;2023-08-24T04:50:46;17.70;99.90
79049;DHT22;68680;50.764;6.120;2023-08-24T04:53:13;17.70;99.90
79049;DHT22;68680;50.764;6.120;2023-08-24T04:55:39;17.70;99.90
79049;DHT22;68680;50.764;6.120;2023-08-24T04:58:05;17.70;99.90
79049;DHT22;68680;50.764;6.120;2023-08-24T05:00:31;17.80;99.90
79049;DHT22;68680;50.764;6.120;2023-08-24T05:02:56;17.80;99.90
79049;DHT22;68680;50.764;6.120;2023-08-24T05:05:22;17.80;99.90
79049;DHT22;68680;50.764;6.120;2023-08-24T05:07:49;17.80;99.90
79049;DHT22;68680;50.764;6.120;2023-08-24T05:10:14;17.80;99.90
79049;DHT22;68680;50.764;6.120;2023-08-24T05:12:40;17.90;99.90
79049;DHT22;68680;50.764;6.120;2023-08-24T05:15:06;17.90;99.90
79049;DHT22;68680;50.764;6.120;2023-08-24T05:17:32;17.90;99.90
79049;DHT22;68680;50.764;6.120;2023-08-24T05:19:58;17.90;99.90
79049;DHT22;68680;50.764;6.120;2023-08-24T05:22:23;18.00;99.90
79049;DHT22;68680;50.764;6.120;2023-08-24T05:24:51;18.00;99.90
79049;DHT22;68680;50.764;6.120;2023-08-24T05:27:16;18.00;99.90
79049;DHT22;68680;50.764;6.120;2023-08-24T05:29:42;18.00;99.90
79049;DHT22;68680;50.764;6.120;2023-08-24T05:32:08;18.10;99.90
79049;DHT22;68680;50.764;6.120;2023-08-24T05:34:34;18.10;99.90
79049;DHT22;68680;50.764;6.120;2023-08-24T05:36:59;18.10;99.90
79049;DHT22;68680;50.764;6.120;2023-08-24T05:39:25;18.10;99.90
79049;DHT22;68680;50.764;6.120;2023-08-24T05:41:52;18.20;99.90
79049;DHT22;68680;50.764;6.120;2023-08-24T05:44:18;18.20;99.90
79049;DHT22;68680;50.764;6.120;2023-08-24T05:46:44;18.20;99.90
79049;DHT22;68680;50.764;6.120;2023-08-24T05:49:09;18.20;99.90
79049;DHT22;68680;50.764;6.120;2023-08-24T05:51:36;18.20;99.90
79049;DHT22;68680;50.764;6.120;2023-08-24T05:54:02;18.20;99.90
79049;DHT22;68680;50.764;6.120;2023-08-24T05:56:27;18.20;99.90
79049;DHT22;68680;50.764;6.120;2023-08-24T05:58:57;18.30;99.90
79049;DHT22;68680;50.764;6.120;2023-08-24T06:01:22;18.30;99.90
79049;DHT22;68680;50.764;6.120;2023-08-24T06:03:49;18.30;99.90
79049;DHT22;68680;50.764;6.120;2023-08-24T06:06:14;18.40;99.90
79049;DHT22;68680;50.764;6.120;2023-08-24T06:08:40;18.40;99.90
79049;DHT22;68680;50.764;6.120;2023-08-24T06:11:06;18.50;99.90
79049;DHT22;68680;50.764;6.120;2023-08-24T06:13:31;18.50;99.90
79049;DHT22;68680;50.764;6.120;2023-08-24T06:15:58;18.50;99.90
79049;DHT22;68680;50.764;6.120;2023-08-24T06:18:24;18.60;99.90
79049;DHT22;68680;50.764;6.120;2023-08-24T06:20:50;18.70;99.90
79049;DHT22;68680;50.764;6.120;2023-08-24T06:23:16;18.70;99.90
79049;DHT22;68680;50.764;6.120;2023-08-24T06:25:42;18.80;99.90
79049;DHT22;68680;50.764;6.120;2023-08-24T06:28:07;18.90;99.90
79049;DHT22;68680;50.764;6.120;2023-08-24T06:30:37;18.90;99.90
79049;DHT22;68680;50.764;6.120;2023-08-24T06:33:04;19.10;99.90
79049;DHT22;68680;50.764;6.120;2023-08-24T06:35:30;19.10;99.90
79049;DHT22;68680;50.764;6.120;2023-08-24T06:37:55;19.20;99.90
79049;DHT22;68680;50.764;6.120;2023-08-24T06:40:21;19.30;99.90
79049;DHT22;68680;50.764;6.120;2023-08-24T06:42:46;19.40;99.90
79049;DHT22;68680;50.764;6.120;2023-08-24T06:45:12;19.50;99.90
79049;DHT22;68680;50.764;6.120;2023-08-24T06:47:38;19.60;99.90
79049;DHT22;68680;50.764;6.120;2023-08-24T06:50:06;19.60;99.90
79049;DHT22;68680;50.764;6.120;2023-08-24T06:52:32;19.70;99.90
79049;DHT22;68680;50.764;6.120;2023-08-24T06:54:59;19.90;99.90
79049;DHT22;68680;50.764;6.120;2023-08-24T06:57:25;20.00;99.90
79049;DHT22;68680;50.764;6.120;2023-08-24T06:59:51;20.10;99.90
79049;DHT22;68680;50.764;6.120;2023-08-24T07:02:17;20.20;99.90
79049;DHT22;68680;50.764;6.120;2023-08-24T07:04:42;20.30;99.90
79049;DHT22;68680;50.764;6.120;2023-08-24T07:07:09;20.40;99.90
79049;DHT22;68680;50.764;6.120;2023-08-24T07:09:35;20.40;99.90
79049;DHT22;68680;50.764;6.120;2023-08-24T07:12:01;20.50;99.90
79049;DHT22;68680;50.764;6.120;2023-08-24T07:14:26;20.60;99.90
79049;DHT22;68680;50.764;6.120;2023-08-24T07:16:52;20.70;99.90
79049;DHT22;68680;50.764;6.120;2023-08-24T07:19:18;20.80;99.90
79049;DHT22;68680;50.764;6.120;2023-08-24T07:21:43;20.90;99.90
79049;DHT22;68680;50.764;6.120;2023-08-24T07:24:10;21.00;99.90
79049;DHT22;68680;50.764;6.120;2023-08-24T07:26:36;21.10;99.90
79049;DHT22;68680;50.764;6.120;2023-08-24T07:29:01;21.20;99.90
79049;DHT22;68680;50.764;6.120;2023-08-24T07:31:27;21.30;99.90
79049;DHT22;68680;50.764;6.120;2023-08-24T07:33:52;21.40;99.90
79049;DHT22;68680;50.764;6.120;2023-08-24T07:36:18;21.40;99.90
79049;DHT22;68680;50.764;6.120;2023-08-24T07:38:45;21.50;99.90
79049;DHT22;68680;50.764;6.120;2023-08-24T07:41:12;21.60;99.90
79049;DHT22;68680;50.764;6.120;2023-08-24T07:43:37;21.70;99.90
79049;DHT22;68680;50.764;6.120;2023-08-24T07:46:04;21.80;99.90
79049;DHT22;68680;50.764;6.120;2023-08-24T07:48:30;21.90;99.90
79049;DHT22;68680;50.764;6.120;2023-08-24T07:50:55;22.10;99.90
79049;DHT22;68680;50.764;6.120;2023-08-24T07:53:21;22.20;99.90
79049;DHT22;68680;50.764;6.120;2023-08-24T07:55:47;22.30;99.90
79049;DHT22;68680;50.764;6.120;2023-08-24T07:58:14;22.40;99.90
79049;DHT22;68680;50.764;6.120;2023-08-24T08:00:39;22.50;99.90
79049;DHT22;68680;50.764;6.120;2023-08-24T08:03:05;22.60;99.90
79049;DHT22;68680;50.764;6.120;2023-08-24T08:05:30;22.70;99.90
79049;DHT22;68680;50.764;6.120;2023-08-24T08:07:56;22.70;99.90
79049;DHT22;68680;50.764;6.120;2023-08-24T08:10:22;22.80;99.90
79049;DHT22;68680;50.764;6.120;2023-08-24T08:12:47;22.80;99.90
79049;DHT22;68680;50.764;6.120;2023-08-24T08:15:14;22.90;99.90
79049;DHT22;68680;50.764;6.120;2023-08-24T08:17:40;22.90;99.50
79049;DHT22;68680;50.764;6.120;2023-08-24T08:20:07;23.00;99.40
79049;DHT22;68680;50.764;6.120;2023-08-24T08:22:32;22.90;99.30
79049;DHT22;68680;50.764;6.120;2023-08-24T08:24:58;22.90;99.70
79049;DHT22;68680;50.764;6.120;2023-08-24T08:27:24;23.00;99.00
79049;DHT22;68680;50.764;6.120;2023-08-24T08:29:50;23.10;99.00
79049;DHT22;68680;50.764;6.120;2023-08-24T08:32:16;23.20;98.10
79049;DHT22;68680;50.764;6.120;2023-08-24T08:34:42;23.40;98.30
79049;DHT22;68680;50.764;6.120;2023-08-24T08:37:08;23.50;98.60
79049;DHT22;68680;50.764;6.120;2023-08-24T08:39:33;23.60;97.60
79049;DHT22;68680;50.764;6.120;2023-08-24T08:41:59;23.80;97.20
79049;DHT22;68680;50.764;6.120;2023-08-24T08:44:30;23.90;96.00
79049;DHT22;68680;50.764;6.120;2023-08-24T08:46:57;24.00;95.90
79049;DHT22;68680;50.764;6.120;2023-08-24T08:49:24;24.20;95.10
79049;DHT22;68680;50.764;6.120;2023-08-24T08:51:50;24.30;95.70
79049;DHT22;68680;50.764;6.120;2023-08-24T08:54:16;24.50;94.90
79049;DHT22;68680;50.764;6.120;2023-08-24T08:56:41;24.50;94.40
79049;DHT22;68680;50.764;6.120;2023-08-24T08:59:08;24.60;94.30
79049;DHT22;68680;50.764;6.120;2023-08-24T09:01:37;24.60;93.90
79049;DHT22;68680;50.764;6.120;2023-08-24T09:04:03;24.80;93.20
79049;DHT22;68680;50.764;6.120;2023-08-24T09:06:31;24.90;93.40
79049;DHT22;68680;50.764;6.120;2023-08-24T09:08:57;25.00;92.70
79049;DHT22;68680;50.764;6.120;2023-08-24T09:11:23;25.10;92.00
79049;DHT22;68680;50.764;6.120;2023-08-24T09:13:49;25.20;91.40
79049;DHT22;68680;50.764;6.120;2023-08-24T09:16:14;25.30;90.00
79049;DHT22;68680;50.764;6.120;2023-08-24T09:18:43;25.40;90.30
79049;DHT22;68680;50.764;6.120;2023-08-24T09:21:09;25.60;89.10
79049;DHT22;68680;50.764;6.120;2023-08-24T09:23:37;25.70;87.10
79049;DHT22;68680;50.764;6.120;2023-08-24T09:26:03;25.80;86.90
79049;DHT22;68680;50.764;6.120;2023-08-24T09:28:29;25.90;85.00
79049;DHT22;68680;50.764;6.120;2023-08-24T09:30:54;25.90;84.80
79049;DHT22;68680;50.764;6.120;2023-08-24T09:33:20;26.00;84.40
79049;DHT22;68680;50.764;6.120;2023-08-24T09:35:52;26.10;84.20
79049;DHT22;68680;50.764;6.120;2023-08-24T09:38:18;26.20;85.40
79049;DHT22;68680;50.764;6.120;2023-08-24T09:40:46;26.30;82.50
79049;DHT22;68680;50.764;6.120;2023-08-24T09:43:13;26.30;82.40
79049;DHT22;68680;50.764;6.120;2023-08-24T09:45:38;26.40;80.90
79049;DHT22;68680;50.764;6.120;2023-08-24T09:48:06;26.40;81.80
79049;DHT22;68680;50.764;6.120;2023-08-24T09:50:32;26.40;81.10
79049;DHT22;68680;50.764;6.120;2023-08-24T09:52:59;26.50;83.00
79049;DHT22;68680;50.764;6.120;2023-08-24T09:55:29;26.40;79.10
79049;DHT22;68680;50.764;6.120;2023-08-24T09:58:00;26.40;81.40
79049;DHT22;68680;50.764;6.120;2023-08-24T10:00:26;26.40;83.60
79049;DHT22;68680;50.764;6.120;2023-08-24T10:02:52;26.50;81.60
79049;DHT22;68680;50.764;6.120;2023-08-24T10:05:20;26.50;78.70
79049;DHT22;68680;50.764;6.120;2023-08-24T10:07:50;26.50;78.90
79049;DHT22;68680;50.764;6.120;2023-08-24T10:10:16;26.40;79.80
79049;DHT22;68680;50.764;6.120;2023-08-24T10:12:47;26.40;83.30
79049;DHT22;68680;50.764;6.120;2023-08-24T10:15:17;26.50;82.40
79049;DHT22;68680;50.764;6.120;2023-08-24T10:17:44;26.50;82.70
79049;DHT22;68680;50.764;6.120;2023-08-24T10:20:10;26.50;82.30
79049;DHT22;68680;50.764;6.120;2023-08-24T10:22:36;26.40;80.20
79049;DHT22;68680;50.764;6.120;2023-08-24T10:25:02;26.30;80.50
79049;DHT22;68680;50.764;6.120;2023-08-24T10:27:29;26.30;81.00
79049;DHT22;68680;50.764;6.120;2023-08-24T10:29:55;26.20;82.20
79049;DHT22;68680;50.764;6.120;2023-08-24T10:32:22;26.20;82.20
79049;DHT22;68680;50.764;6.120;2023-08-24T10:34:48;26.20;83.50
79049;DHT22;68680;50.764;6.120;2023-08-24T10:37:14;26.10;82.70
79049;DHT22;68680;50.764;6.120;2023-08-24T10:39:44;26.10;81.50
79049;DHT22;68680;50.764;6.120;2023-08-24T10:42:11;26.00;79.60
79049;DHT22;68680;50.764;6.120;2023-08-24T10:44:38;25.90;80.10
79049;DHT22;68680;50.764;6.120;2023-08-24T10:47:23;25.90;81.00
79049;DHT22;68680;50.764;6.120;2023-08-24T10:49:58;25.80;81.20
79049;DHT22;68680;50.764;6.120;2023-08-24T10:52:25;25.70;81.40
79049;DHT22;68680;50.764;6.120;2023-08-24T10:54:51;25.60;82.70
79049;DHT22;68680;50.764;6.120;2023-08-24T10:57:18;25.50;84.30
79049;DHT22;68680;50.764;6.120;2023-08-24T10:59:44;25.50;80.90
79049;DHT22;68680;50.764;6.120;2023-08-24T11:02:18;25.40;81.80
79049;DHT22;68680;50.764;6.120;2023-08-24T11:05:07;25.30;84.40
79049;DHT22;68680;50.764;6.120;2023-08-24T11:07:51;25.10;86.30
79049;DHT22;68680;50.764;6.120;2023-08-24T11:10:18;24.90;86.80
79049;DHT22;68680;50.764;6.120;2023-08-24T11:13:12;24.70;88.80
79049;DHT22;68680;50.764;6.120;2023-08-24T11:15:39;24.50;91.00
79049;DHT22;68680;50.764;6.120;2023-08-24T11:18:20;24.20;95.10
79049;DHT22;68680;50.764;6.120;2023-08-24T11:20:49;23.40;99.90
79049;DHT22;68680;50.764;6.120;2023-08-24T11:23:15;22.60;99.90
79049;DHT22;68680;50.764;6.120;2023-08-24T11:25:41;22.10;99.90
79049;DHT22;68680;50.764;6.120;2023-08-24T11:28:07;21.80;99.90
79049;DHT22;68680;50.764;6.120;2023-08-24T11:30:33;21.60;99.90
79049;DHT22;68680;50.764;6.120;2023-08-24T11:32:59;21.40;99.90
79049;DHT22;68680;50.764;6.120;2023-08-24T11:35:24;21.30;99.90
79049;DHT22;68680;50.764;6.120;2023-08-24T11:37:52;21.20;99.90
79049;DHT22;68680;50.764;6.120;2023-08-24T11:40:18;21.10;99.90
79049;DHT22;68680;50.764;6.120;2023-08-24T11:42:44;20.90;99.90
79049;DHT22;68680;50.764;6.120;2023-08-24T11:45:11;20.80;99.90
79049;DHT22;68680;50.764;6.120;2023-08-24T11:47:37;20.60;99.90
79049;DHT22;68680;50.764;6.120;2023-08-24T11:50:04;20.50;99.90
79049;DHT22;68680;50.764;6.120;2023-08-24T11:52:29;20.40;99.90
79049;DHT22;68680;50.764;6.120;2023-08-24T11:54:58;20.40;99.90
79049;DHT22;68680;50.764;6.120;2023-08-24T11:57:24;20.40;99.90
79049;DHT22;68680;50.764;6.120;2023-08-24T11:59:50;20.40;99.90
79049;DHT22;68680;50.764;6.120;2023-08-24T12:02:15;20.40;99.90
79049;DHT22;68680;50.764;6.120;2023-08-24T12:04:42;20.40;99.90
79049;DHT22;68680;50.764;6.120;2023-08-24T12:07:09;20.40;99.90
79049;DHT22;68680;50.764;6.120;2023-08-24T12:09:35;20.30;99.90
79049;DHT22;68680;50.764;6.120;2023-08-24T12:12:04;20.30;99.90
79049;DHT22;68680;50.764;6.120;2023-08-24T12:14:39;20.30;99.90
79049;DHT22;68680;50.764;6.120;2023-08-24T12:17:06;20.30;99.90
79049;DHT22;68680;50.764;6.120;2023-08-24T12:19:32;20.40;99.90
79049;DHT22;68680;50.764;6.120;2023-08-24T12:21:57;20.40;99.90
79049;DHT22;68680;50.764;6.120;2023-08-24T12:24:23;20.50;99.90
79049;DHT22;68680;50.764;6.120;2023-08-24T12:26:55;20.50;99.90
79049;DHT22;68680;50.764;6.120;2023-08-24T12:29:22;20.50;99.90
79049;DHT22;68680;50.764;6.120;2023-08-24T12:31:48;20.50;99.90
79049;DHT22;68680;50.764;6.120;2023-08-24T12:34:15;20.40;99.90
79049;DHT22;68680;50.764;6.120;2023-08-24T12:36:41;20.30;99.90
79049;DHT22;68680;50.764;6.120;2023-08-24T12:39:07;20.30;99.90
79049;DHT22;68680;50.764;6.120;2023-08-24T12:41:33;20.20;99.90
79049;DHT22;68680;50.764;6.120;2023-08-24T12:43:59;20.30;99.90
79049;DHT22;68680;50.764;6.120;2023-08-24T12:46:26;20.20;99.90
79049;DHT22;68680;50.764;6.120;2023-08-24T12:48:52;20.30;99.90
79049;DHT22;68680;50.764;6.120;2023-08-24T12:51:17;20.30;99.90
79049;DHT22;68680;50.764;6.120;2023-08-24T12:53:43;20.30;99.90
79049;DHT22;68680;50.764;6.120;2023-08-24T12:56:09;20.30;99.90
79049;DHT22;68680;50.764;6.120;2023-08-24T12:58:34;20.30;99.90
79049;DHT22;68680;50.764;6.120;2023-08-24T13:01:00;20.30;99.90
79049;DHT22;68680;50.764;6.120;2023-08-24T13:03:27;20.30;99.90
79049;DHT22;68680;50.764;6.120;2023-08-24T13:05:53;20.30;99.90
79049;DHT22;68680;50.764;6.120;2023-08-24T13:08:18;20.40;99.90
79049;DHT22;68680;50.764;6.120;2023-08-24T13:10:44;20.40;99.90
79049;DHT22;68680;50.764;6.120;2023-08-24T13:13:09;20.40;99.90
79049;DHT22;68680;50.764;6.120;2023-08-24T13:15:35;20.30;99.90
79049;DHT22;68680;50.764;6.120;2023-08-24T13:18:01;20.30;99.90
79049;DHT22;68680;50.764;6.120;2023-08-24T13:20:28;20.10;99.90
79049;DHT22;68680;50.764;6.120;2023-08-24T13:22:53;20.10;99.90
79049;DHT22;68680;50.764;6.120;2023-08-24T13:25:19;20.10;99.90
79049;DHT22;68680;50.764;6.120;2023-08-24T13:27:45;20.10;99.90
79049;DHT22;68680;50.764;6.120;2023-08-24T13:30:11;20.10;99.90
79049;DHT22;68680;50.764;6.120;2023-08-24T13:32:36;20.00;99.90
79049;DHT22;68680;50.764;6.120;2023-08-24T13:35:02;20.00;99.90
79049;DHT22;68680;50.764;6.120;2023-08-24T13:37:29;19.90;99.90
79049;DHT22;68680;50.764;6.120;2023-08-24T13:39:55;19.80;99.90
79049;DHT22;68680;50.764;6.120;2023-08-24T13:42:20;19.80;99.90
79049;DHT22;68680;50.764;6.120;2023-08-24T13:44:46;19.70;99.90
79049;DHT22;68680;50.764;6.120;2023-08-24T13:47:12;19.70;99.90
79049;DHT22;68680;50.764;6.120;2023-08-24T13:49:38;19.70;99.90
79049;DHT22;68680;50.764;6.120;2023-08-24T13:52:04;19.70;99.90
79049;DHT22;68680;50.764;6.120;2023-08-24T13:54:31;19.60;99.90
79049;DHT22;68680;50.764;6.120;2023-08-24T13:56:57;19.50;99.90
79049;DHT22;68680;50.764;6.120;2023-08-24T13:59:22;19.50;99.90
79049;DHT22;68680;50.764;6.120;2023-08-24T14:01:48;19.40;99.90
79049;DHT22;68680;50.764;6.120;2023-08-24T14:04:13;19.40;99.90
79049;DHT22;68680;50.764;6.120;2023-08-24T14:06:39;19.30;99.90
79049;DHT22;68680;50.764;6.120;2023-08-24T14:09:05;19.30;99.90
79049;DHT22;68680;50.764;6.120;2023-08-24T14:11:32;19.20;99.90
79049;DHT22;68680;50.764;6.120;2023-08-24T14:13:58;19.10;99.90
79049;DHT22;68680;50.764;6.120;2023-08-24T14:16:24;19.00;99.90
79049;DHT22;68680;50.764;6.120;2023-08-24T14:18:51;19.00;99.90
79049;DHT22;68680;50.764;6.120;2023-08-24T14:21:17;18.90;99.90
79049;DHT22;68680;50.764;6.120;2023-08-24T14:23:42;18.80;99.90
79049;DHT22;68680;50.764;6.120;2023-08-24T14:26:09;18.80;99.90
79049;DHT22;68680;50.764;6.120;2023-08-24T14:28:49;18.70;99.90
79049;DHT22;68680;50.764;6.120;2023-08-24T14:31:15;18.70;99.90
79049;DHT22;68680;50.764;6.120;2023-08-24T14:33:40;18.70;99.90
79049;DHT22;68680;50.764;6.120;2023-08-24T14:36:06;18.70;99.90
79049;DHT22;68680;50.764;6.120;2023-08-24T14:38:32;18.70;99.90
79049;DHT22;68680;50.764;6.120;2023-08-24T14:40:57;18.70;99.90
79049;DHT22;68680;50.764;6.120;2023-08-24T14:43:23;18.60;99.90
79049;DHT22;68680;50.764;6.120;2023-08-24T14:45:50;18.60;99.90
79049;DHT22;68680;50.764;6.120;2023-08-24T14:48:15;18.60;99.90
79049;DHT22;68680;50.764;6.120;2023-08-24T14:50:41;18.60;99.90
79049;DHT22;68680;50.764;6.120;2023-08-24T14:53:07;18.60;99.90
79049;DHT22;68680;50.764;6.120;2023-08-24T14:55:32;18.60;99.90
79049;DHT22;68680;50.764;6.120;2023-08-24T14:57:58;18.70;99.90
79049;DHT22;68680;50.764;6.120;2023-08-24T15:00:23;18.70;99.90
79049;DHT22;68680;50.764;6.120;2023-08-24T15:02:53;18.70;99.90
79049;DHT22;68680;50.764;6.120;2023-08-24T15:05:18;18.80;99.90
79049;DHT22;68680;50.764;6.120;2023-08-24T15:07:44;18.80;99.90
79049;DHT22;68680;50.764;6.120;2023-08-24T15:10:10;18.80;99.90
79049;DHT22;68680;50.764;6.120;2023-08-24T15:12:35;18.80;99.90
79049;DHT22;68680;50.764;6.120;2023-08-24T15:15:02;18.80;99.90
79049;DHT22;68680;50.764;6.120;2023-08-24T15:17:30;18.70;99.90
79049;DHT22;68680;50.764;6.120;2023-08-24T15:19:57;18.70;99.90
79049;DHT22;68680;50.764;6.120;2023-08-24T15:22:23;18.70;99.90
79049;DHT22;68680;50.764;6.120;2023-08-24T15:24:49;18.80;99.90